Temp Hi Low Out Dew Wind Wind Wind Hi Hi Wind Heat THW THSW Rain Solar Solar Hi Solar UV UV Hi Heat Cool In In In In In In Air Wind Wind ISS Arc.
Date Time Out Temp Temp Hum Pt. Speed Dir Run Speed Dir Chill Index Index Index Bar Rain Rate Rad. Energy Rad. Index Dose UV D-D D-D Temp Hum Dew Heat EMC Density ET Samp Tx Recept Int.
------------------------------------------------------------------------------------------------------------------------------------------------------------------------------------------------------------------------------------------------------------------------
5/07/26 12:10a 54.0 54.1 54.0 92 51.7 2.0 NE 0.33 5.0 NE 54.0 54.1 54.1 51.5 30.197 0.00 0.00 0 0.00 0 0.0 0.00 0.0 0.076 0.000 72.7 50 53.0 72.1 9.25 .0742 0.000 202 7 100.0 10
5/07/26 12:20a 54.1 54.1 54.0 91 51.5 2.0 NE 0.33 4.0 NE 54.1 54.2 54.2 51.6 30.196 0.00 0.00 0 0.00 0 0.0 0.00 0.0 0.076 0.000 72.7 50 53.0 72.1 9.25 .0742 0.000 202 7 100.0 10
5/07/26 12:30a 54.0 54.1 54.0 91 51.4 2.0 NE 0.33 4.0 NE 54.0 54.1 54.1 51.5 30.198 0.00 0.00 0 0.00 0 0.0 0.00 0.0 0.076 0.000 72.7 50 53.0 72.1 9.25 .0742 0.000 205 7 100.0 10
5/07/26 12:40a 53.9 54.0 53.9 91 51.3 2.0 NE 0.33 5.0 NE 53.9 54.0 54.0 51.4 30.194 0.00 0.00 0 0.00 0 0.0 0.00 0.0 0.077 0.000 72.6 50 52.9 71.9 9.25 .0742 0.000 202 7 100.0 10
5/07/26 12:50a 53.9 54.0 53.9 92 51.6 1.0 NE 0.17 4.0 NE 53.9 54.0 54.0 51.4 30.194 0.00 0.00 0 0.00 0 0.0 0.00 0.0 0.077 0.000 72.6 50 52.9 71.9 9.25 .0742 0.000 203 7 100.0 10
5/07/26 1:00a 53.8 53.9 53.8 92 51.5 1.0 NE 0.17 3.0 NE 53.8 53.9 53.9 51.3 30.194 0.00 0.00 0 0.00 0 0.0 0.00 0.0 0.078 0.000 72.5 50 52.8 71.8 9.25 .0743 0.000 203 7 100.0 10
5/07/26 1:10a 53.7 53.9 53.7 92 51.4 2.0 NE 0.33 4.0 NE 53.7 53.9 53.9 51.3 30.194 0.00 0.00 0 0.00 0 0.0 0.00 0.0 0.078 0.000 72.5 50 52.8 71.8 9.25 .0743 0.000 201 7 100.0 10
5/07/26 1:20a 53.6 53.7 53.6 92 51.3 2.0 NE 0.33 5.0 NE 53.6 53.8 53.8 51.2 30.192 0.00 0.00 0 0.00 0 0.0 0.00 0.0 0.079 0.000 72.5 50 52.8 71.8 9.25 .0742 0.000 204 7 100.0 10
5/07/26 1:30a 53.4 53.6 53.4 91 50.8 3.0 NE 0.50 9.0 ENE 53.4 53.5 53.5 50.9 30.191 0.00 0.00 0 0.00 0 0.0 0.00 0.0 0.081 0.000 72.5 50 52.8 71.8 9.25 .0742 0.000 203 7 100.0 10
5/07/26 1:40a 53.3 53.4 53.3 91 50.7 3.0 NE 0.50 9.0 ENE 53.3 53.4 53.4 50.8 30.191 0.00 0.00 0 0.00 0 0.0 0.00 0.0 0.081 0.000 72.4 50 52.7 71.7 9.25 .0743 0.000 204 7 100.0 10
5/07/26 1:50a 53.3 53.3 53.3 91 50.7 2.0 NE 0.33 5.0 NE 53.3 53.4 53.4 50.8 30.191 0.00 0.00 0 0.00 0 0.0 0.00 0.0 0.081 0.000 72.4 50 52.7 71.7 9.25 .0743 0.000 203 7 100.0 10
5/07/26 2:00a 53.4 53.5 53.3 91 50.8 2.0 NE 0.33 5.0 NE 53.4 53.5 53.5 50.9 30.189 0.00 0.00 0 0.00 0 0.0 0.00 0.0 0.081 0.000 72.3 50 52.6 71.5 9.25 .0743 0.000 203 7 100.0 10
5/07/26 2:10a 53.4 53.5 53.4 91 50.8 3.0 NE 0.50 7.0 ENE 53.4 53.5 53.5 50.9 30.186 0.00 0.00 0 0.00 0 0.0 0.00 0.0 0.081 0.000 72.3 50 52.6 71.5 9.25 .0743 0.000 203 7 100.0 10
5/07/26 2:20a 53.3 53.4 53.3 91 50.7 4.0 NE 0.67 9.0 NE 52.7 53.4 52.8 50.2 30.183 0.00 0.00 0 0.00 0 0.0 0.00 0.0 0.081 0.000 72.3 50 52.6 71.5 9.25 .0743 0.000 204 7 100.0 10
5/07/26 2:30a 53.3 53.3 53.3 91 50.7 4.0 ENE 0.67 9.0 NNE 52.7 53.4 52.8 50.2 30.180 0.00 0.00 0 0.00 0 0.0 0.00 0.0 0.081 0.000 72.2 50 52.5 71.4 9.25 .0743 0.000 204 7 100.0 10
5/07/26 2:40a 53.3 53.3 53.2 90 50.4 3.0 NE 0.50 12.0 NE 53.3 53.4 53.4 50.8 30.178 0.00 0.00 0 0.00 0 0.0 0.00 0.0 0.081 0.000 72.2 50 52.5 71.4 9.25 .0743 0.000 202 7 100.0 10
5/07/26 2:50a 53.3 53.3 53.2 90 50.4 3.0 NE 0.50 7.0 NE 53.3 53.4 53.4 50.8 30.176 0.00 0.00 0 0.00 0 0.0 0.00 0.0 0.081 0.000 72.2 50 52.5 71.4 9.25 .0743 0.000 200 7 100.0 10
5/07/26 3:00a 53.3 53.3 53.2 90 50.4 3.0 NE 0.50 7.0 NNE 53.3 53.4 53.4 50.8 30.174 0.00 0.00 0 0.00 0 0.0 0.00 0.0 0.081 0.000 72.2 50 52.5 71.4 9.25 .0743 0.000 203 7 100.0 10
5/07/26 3:10a 53.2 53.3 53.2 90 50.3 3.0 NE 0.50 8.0 NNE 53.2 53.3 53.3 50.7 30.171 0.00 0.00 0 0.00 0 0.0 0.00 0.0 0.082 0.000 72.1 50 52.4 71.2 9.25 .0743 0.000 204 7 100.0 10
5/07/26 3:20a 53.2 53.3 53.2 90 50.3 3.0 ENE 0.50 7.0 NE 53.2 53.3 53.3 50.7 30.169 0.00 0.00 0 0.00 0 0.0 0.00 0.0 0.082 0.000 72.1 50 52.4 71.2 9.25 .0743 0.000 203 7 100.0 10
5/07/26 3:30a 53.2 53.2 53.2 89 50.0 3.0 NE 0.50 10.0 NE 53.2 53.3 53.3 50.7 30.168 0.00 0.00 0 0.00 0 0.0 0.00 0.0 0.082 0.000 72.1 50 52.4 71.2 9.25 .0743 0.000 203 7 100.0 10
5/07/26 3:40a 53.2 53.2 53.2 89 50.0 2.0 ENE 0.33 8.0 NNE 53.2 53.3 53.3 50.7 30.168 0.00 0.00 0 0.00 0 0.0 0.00 0.0 0.082 0.000 72.0 50 52.3 71.1 9.25 .0743 0.000 202 7 100.0 10
5/07/26 3:50a 53.2 53.2 53.1 89 50.0 2.0 E 0.33 4.0 E 53.2 53.3 53.3 50.7 30.166 0.00 0.00 0 0.00 0 0.0 0.00 0.0 0.082 0.000 72.0 50 52.3 71.1 9.25 .0743 0.000 203 7 100.0 10
5/07/26 4:00a 53.2 53.2 53.2 89 50.0 1.0 ENE 0.17 3.0 ENE 53.2 53.3 53.3 50.7 30.166 0.00 0.00 0 0.00 0 0.0 0.00 0.0 0.082 0.000 72.0 50 52.3 71.1 9.25 .0743 0.000 202 7 100.0 10
5/07/26 4:10a 53.2 53.3 53.2 89 50.0 1.0 NE 0.17 5.0 NE 53.2 53.3 53.3 50.7 30.163 0.00 0.00 0 0.00 0 0.0 0.00 0.0 0.082 0.000 71.9 50 52.2 70.9 9.25 .0743 0.000 201 7 100.0 10
5/07/26 4:20a 53.2 53.3 53.2 89 50.0 1.0 NE 0.17 2.0 NE 53.2 53.3 53.3 50.7 30.162 0.00 0.00 0 0.00 0 0.0 0.00 0.0 0.082 0.000 71.9 50 52.2 70.9 9.25 .0743 0.000 202 7 100.0 10
5/07/26 4:30a 53.2 53.3 53.2 89 50.0 1.0 NE 0.17 3.0 NE 53.2 53.3 53.3 50.7 30.161 0.00 0.00 0 0.00 0 0.0 0.00 0.0 0.082 0.000 71.9 50 52.2 70.9 9.25 .0743 0.000 204 7 100.0 10
5/07/26 4:40a 53.3 53.3 53.2 89 50.1 1.0 NE 0.17 2.0 NE 53.3 53.4 53.4 50.8 30.161 0.00 0.00 0 0.00 0 0.0 0.00 0.0 0.081 0.000 71.8 50 52.2 70.8 9.25 .0743 0.000 203 7 100.0 10
5/07/26 4:50a 53.2 53.3 53.2 89 50.0 1.0 NE 0.17 3.0 NE 53.2 53.3 53.3 50.7 30.158 0.00 0.00 0 0.00 0 0.0 0.00 0.0 0.082 0.000 71.8 50 52.2 70.8 9.25 .0743 0.000 202 7 100.0 10
5/07/26 5:00a 53.2 53.3 53.2 89 50.0 1.0 NE 0.17 3.0 NE 53.2 53.3 53.3 50.7 30.154 0.00 0.00 0 0.00 0 0.0 0.00 0.0 0.082 0.000 71.8 50 52.2 70.8 9.25 .0743 0.000 203 7 100.0 10
5/07/26 5:10a 53.1 53.2 53.1 89 49.9 2.0 ENE 0.33 4.0 NE 53.1 53.2 53.2 50.5 30.152 0.00 0.00 0 0.00 0 0.0 0.00 0.0 0.083 0.000 71.7 50 52.1 70.6 9.25 .0743 0.000 203 7 100.0 10
5/07/26 5:20a 53.0 53.1 53.0 89 49.8 2.0 NE 0.33 6.0 NE 53.0 53.1 53.1 50.4 30.152 0.00 0.00 0 0.00 0 0.0 0.00 0.0 0.083 0.000 71.7 50 52.1 70.6 9.25 .0743 0.000 201 7 100.0 10
5/07/26 5:30a 53.0 53.1 52.9 88 49.5 2.0 NE 0.33 4.0 NE 53.0 53.0 53.0 50.3 30.150 0.00 0.00 0 0.00 0 0.0 0.00 0.0 0.083 0.000 71.7 50 52.1 70.6 9.25 .0743 0.000 203 7 100.0 10
5/07/26 5:40a 52.9 53.0 52.9 88 49.4 1.0 NE 0.17 4.0 NE 52.9 52.9 52.9 50.2 30.148 0.00 0.00 0 0.00 0 0.0 0.00 0.0 0.084 0.000 71.7 50 52.1 70.6 9.25 .0743 0.000 199 7 100.0 10
5/07/26 5:50a 52.9 53.0 52.9 88 49.4 1.0 NE 0.17 3.0 NE 52.9 52.9 52.9 50.2 30.151 0.00 0.00 0 0.00 0 0.0 0.00 0.0 0.084 0.000 71.6 50 52.0 70.5 9.25 .0743 0.000 202 7 100.0 10
5/07/26 6:00a 53.1 53.1 52.9 89 49.9 1.0 NE 0.17 2.0 NE 53.1 53.2 53.2 50.5 30.151 0.00 0.00 0 0.00 0 0.0 0.00 0.0 0.083 0.000 71.6 50 52.0 70.5 9.25 .0743 0.000 199 7 100.0 10
5/07/26 6:10a 53.2 53.2 53.0 89 50.0 1.0 NE 0.17 3.0 NE 53.2 53.3 53.3 50.7 30.152 0.00 0.00 0 0.00 0 0.0 0.00 0.0 0.082 0.000 71.6 50 52.0 70.5 9.25 .0743 0.000 205 7 100.0 10
5/07/26 6:20a 53.2 53.2 53.1 89 50.0 0.0 NE 0.00 3.0 NE 53.2 53.3 53.3 50.8 30.151 0.00 0.00 6 0.09 9 0.0 0.00 0.0 0.082 0.000 71.6 50 52.0 70.5 9.25 .0743 0.000 204 7 100.0 10
5/07/26 6:30a 53.1 53.2 53.1 89 49.9 0.0 NE 0.00 1.0 NE 53.1 53.2 53.2 50.7 30.151 0.00 0.00 10 0.14 12 0.0 0.00 0.0 0.083 0.000 71.6 50 52.0 70.5 9.25 .0743 0.000 203 7 100.0 10
5/07/26 6:40a 53.1 53.2 53.0 89 49.9 0.0 NE 0.00 2.0 NE 53.1 53.2 53.2 50.8 30.150 0.00 0.00 14 0.20 16 0.0 0.00 0.0 0.083 0.000 71.6 50 52.0 70.5 9.25 .0743 0.000 203 7 100.0 10
5/07/26 6:50a 53.0 53.2 53.0 89 49.8 1.0 NE 0.17 3.0 NE 53.0 53.1 53.1 50.8 30.155 0.00 0.00 16 0.23 18 0.0 0.00 0.0 0.083 0.000 71.5 50 51.9 70.3 9.25 .0743 0.000 202 7 100.0 10
5/07/26 7:00a 53.0 53.1 53.0 89 49.8 1.0 NE 0.17 3.0 NE 53.0 53.1 53.1 51.0 30.155 0.00 0.00 24 0.34 28 0.0 0.00 0.0 0.083 0.000 71.5 50 51.9 70.3 9.25 .0743 0.000 203 7 100.0 10
5/07/26 7:10a 53.1 53.2 53.0 89 49.9 1.0 NE 0.17 3.0 NE 53.1 53.2 53.2 51.3 30.157 0.00 0.00 33 0.47 39 0.0 0.00 0.0 0.083 0.000 71.6 50 52.0 70.5 9.25 .0743 0.000 202 7 100.0 10
5/07/26 7:20a 53.2 53.2 53.1 89 50.0 0.0 NE 0.00 4.0 NE 53.2 53.3 53.3 51.7 30.157 0.00 0.00 43 0.62 53 0.0 0.00 0.0 0.082 0.000 71.5 50 51.9 70.3 9.25 .0743 0.000 202 7 100.0 10
5/07/26 7:30a 53.4 53.5 53.2 89 50.2 0.0 NE 0.00 2.0 NE 53.4 53.5 53.5 52.4 30.157 0.00 0.00 68 0.97 77 0.0 0.00 0.0 0.081 0.000 71.5 50 51.9 70.3 9.25 .0743 0.000 204 7 100.0 10
5/07/26 7:40a 53.2 53.5 53.2 89 50.0 1.0 NE 0.17 3.0 NE 53.2 53.3 53.3 54.8 30.158 0.00 0.00 79 1.13 83 0.0 0.00 0.0 0.082 0.000 71.5 50 51.9 70.3 9.25 .0743 0.000 202 7 100.0 10
5/07/26 7:50a 53.3 53.3 53.2 89 50.1 1.0 NE 0.17 2.0 NE 53.3 53.4 53.4 55.9 30.157 0.00 0.00 103 1.48 109 0.0 0.00 0.0 0.081 0.000 71.6 50 52.0 70.5 9.25 .0743 0.000 203 7 100.0 10
5/07/26 8:00a 53.5 53.6 53.3 90 50.6 1.0 NE 0.17 3.0 NE 53.5 53.6 53.6 56.8 30.157 0.00 0.00 122 1.75 128 0.1 0.01 0.5 0.080 0.000 71.6 50 52.0 70.5 9.25 .0743 0.002 201 7 100.0 10
5/07/26 8:10a 53.7 53.7 53.5 89 50.5 2.0 NE 0.33 3.0 NE 53.7 53.8 53.8 57.9 30.156 0.00 0.00 149 2.14 156 0.5 0.04 0.5 0.078 0.000 71.6 50 52.0 70.5 9.25 .0743 0.000 202 7 100.0 10
5/07/26 8:20a 53.5 53.8 53.5 89 50.3 3.0 NNW 0.50 4.0 NW 53.5 53.6 53.6 57.6 30.158 0.00 0.00 147 2.11 151 0.5 0.04 0.6 0.080 0.000 71.6 50 52.0 70.5 9.25 .0743 0.000 200 7 100.0 10
5/07/26 8:30a 53.6 53.6 53.4 89 50.4 3.0 NNW 0.50 4.0 NNW 53.6 53.7 53.7 57.1 30.158 0.00 0.00 134 1.92 146 0.5 0.04 0.6 0.079 0.000 71.7 50 52.1 70.6 9.25 .0743 0.000 203 7 100.0 10
5/07/26 8:40a 53.7 53.8 53.6 89 50.5 3.0 NNW 0.50 4.0 NNW 53.7 53.8 53.8 58.1 30.156 0.00 0.00 164 2.35 188 0.7 0.05 0.8 0.078 0.000 71.7 50 52.1 70.6 9.25 .0743 0.000 204 7 100.0 10
5/07/26 8:50a 53.8 53.8 53.6 89 50.6 3.0 NNW 0.50 4.0 NNW 53.8 53.9 53.9 58.5 30.155 0.00 0.00 180 2.58 186 0.8 0.06 0.8 0.078 0.000 71.7 50 52.1 70.6 9.25 .0743 0.000 205 7 100.0 10
5/07/26 9:00a 53.8 53.9 53.8 89 50.6 4.0 NNW 0.67 8.0 NNE 53.3 53.9 53.4 57.9 30.156 0.00 0.00 181 2.59 195 0.8 0.06 1.0 0.078 0.000 71.8 50 52.2 70.8 9.25 .0743 0.003 203 7 100.0 10
5/07/26 9:10a 54.0 54.0 53.8 89 50.8 6.0 N 1.00 9.0 N 52.4 54.1 52.5 57.3 30.158 0.00 0.00 197 2.82 213 0.9 0.06 1.0 0.076 0.000 71.8 50 52.2 70.8 9.25 .0743 0.000 200 7 100.0 10
5/07/26 9:20a 53.6 54.0 53.5 88 50.1 8.0 NNE 1.33 13.0 ENE 50.8 53.6 50.8 55.1 30.160 0.00 0.00 195 2.80 202 1.0 0.07 1.0 0.079 0.000 71.8 50 52.2 70.8 9.25 .0743 0.000 205 7 100.0 10
5/07/26 9:30a 53.8 53.8 53.6 88 50.3 8.0 NNE 1.33 13.0 NNE 51.1 53.8 51.1 56.0 30.160 0.00 0.00 223 3.20 237 1.1 0.08 1.2 0.078 0.000 71.9 50 52.2 70.9 9.25 .0743 0.000 202 7 100.0 10
5/07/26 9:40a 54.0 54.0 53.8 87 50.2 8.0 NNE 1.33 12.0 NNE 51.3 54.0 51.3 57.6 30.158 0.00 0.00 285 4.09 376 1.4 0.10 1.6 0.076 0.000 71.9 50 52.2 70.9 9.25 .0743 0.000 203 7 100.0 10
5/07/26 9:50a 54.2 54.2 53.9 87 50.4 9.0 NNE 1.50 13.0 NE 50.8 54.2 50.8 57.4 30.158 0.00 0.00 321 4.60 343 1.7 0.12 1.9 0.075 0.000 71.9 50 52.2 70.9 9.25 .0743 0.000 202 7 100.0 10
5/07/26 10:00a 54.5 54.5 54.2 87 50.7 8.0 N 1.33 13.0 NNE 51.9 54.5 51.9 59.8 30.156 0.00 0.00 379 5.43 431 2.1 0.15 2.2 0.073 0.000 72.0 50 52.3 71.1 9.25 .0742 0.006 204 7 100.0 10
5/07/26 10:10a 54.7 54.7 54.4 86 50.6 8.0 NNE 1.33 12.0 NNE 52.1 54.6 52.0 59.5 30.156 0.00 0.00 368 5.28 415 2.2 0.16 2.2 0.072 0.000 72.0 50 52.3 71.1 9.25 .0742 0.000 203 7 100.0 10
5/07/26 10:20a 54.5 54.8 54.4 86 50.4 8.0 N 1.33 13.0 N 51.9 54.4 51.8 60.4 30.154 0.00 0.00 444 6.36 596 2.6 0.19 3.3 0.073 0.000 72.1 50 52.4 71.2 9.25 .0742 0.000 203 7 100.0 10
5/07/26 10:30a 54.8 54.8 54.4 85 50.4 9.0 NNE 1.50 14.0 ENE 51.6 54.7 51.5 59.8 30.153 0.00 0.00 455 6.52 529 2.8 0.20 3.0 0.071 0.000 72.1 50 52.4 71.2 9.25 .0742 0.000 203 7 100.0 10
5/07/26 10:40a 55.0 55.0 54.8 85 50.6 9.0 NNE 1.50 14.0 N 51.8 54.9 51.7 61.0 30.152 0.00 0.00 560 8.03 756 3.1 0.22 3.6 0.069 0.000 72.2 50 52.5 71.4 9.25 .0742 0.000 202 7 100.0 10
5/07/26 10:50a 55.2 55.3 55.0 85 50.8 8.0 NNE 1.33 12.0 N 52.7 55.1 52.6 61.3 30.154 0.00 0.00 479 6.87 555 3.0 0.21 3.3 0.068 0.000 72.2 50 52.5 71.4 9.25 .0742 0.000 203 7 100.0 10
5/07/26 11:00a 54.9 55.2 54.9 84 50.2 9.0 NNE 1.50 14.0 N 51.7 54.8 51.6 60.1 30.156 0.00 0.00 494 7.08 550 3.1 0.22 3.3 0.070 0.000 72.3 50 52.6 71.5 9.25 .0742 0.010 203 7 100.0 10
5/07/26 11:10a 55.1 55.2 54.8 85 50.7 9.0 NNE 1.50 12.0 N 51.9 55.0 51.8 60.6 30.156 0.00 0.00 527 7.55 610 3.4 0.24 3.7 0.069 0.000 72.3 51 53.2 71.6 9.40 .0742 0.000 203 7 100.0 10
5/07/26 11:20a 55.3 55.3 55.1 84 50.5 8.0 NNE 1.33 12.0 NNE 52.9 55.2 52.8 62.7 30.152 0.00 0.00 620 8.89 686 4.0 0.29 4.6 0.067 0.000 72.3 51 53.2 71.6 9.40 .0742 0.000 203 7 100.0 10
5/07/26 11:30a 55.6 55.6 55.3 84 50.8 8.0 N 1.33 13.0 NNE 53.2 55.5 53.1 64.1 30.147 0.00 0.00 830 11.90 911 4.9 0.35 5.0 0.065 0.000 72.3 51 53.2 71.6 9.40 .0741 0.000 202 7 100.0 10
5/07/26 11:40a 55.9 56.1 55.6 84 51.1 8.0 N 1.33 13.0 N 53.6 55.8 53.5 64.3 30.147 0.00 0.00 836 11.98 842 5.1 0.36 5.2 0.063 0.000 72.4 51 53.2 71.7 9.40 .0741 0.000 204 7 100.0 10
5/07/26 11:50a 55.8 56.1 55.7 83 50.7 9.0 N 1.50 14.0 N 52.8 55.6 52.6 62.9 30.146 0.00 0.00 846 12.13 854 5.3 0.38 5.3 0.064 0.000 72.4 51 53.2 71.7 9.40 .0741 0.000 202 7 100.0 10
5/07/26 12:00p 56.0 56.0 55.7 84 51.2 10.0 NNE 1.67 15.0 NNE 52.3 55.9 52.2 62.1 30.147 0.00 0.00 857 12.29 861 5.4 0.39 5.5 0.063 0.000 72.4 51 53.2 71.7 9.40 .0741 0.016 204 7 100.0 10
5/07/26 12:10p 56.0 56.2 55.8 83 50.9 10.0 NNE 1.67 15.0 NNE 52.3 55.8 52.1 61.9 30.144 0.00 0.00 866 12.41 870 5.6 0.40 5.6 0.063 0.000 72.4 51 53.2 71.7 9.40 .0741 0.000 203 7 100.0 10
5/07/26 12:20p 56.1 56.4 56.0 82 50.7 9.0 NNE 1.50 14.0 NNE 53.1 55.9 52.9 62.9 30.144 0.00 0.00 872 12.50 877 5.7 0.41 5.8 0.062 0.000 72.5 51 53.3 71.9 9.40 .0741 0.000 202 7 100.0 10
5/07/26 12:30p 56.2 56.2 56.0 83 51.1 9.0 NNE 1.50 14.0 N 53.2 56.0 53.0 63.0 30.141 0.00 0.00 878 12.59 882 5.8 0.41 5.8 0.061 0.000 72.5 51 53.3 71.9 9.40 .0741 0.000 203 7 100.0 10
5/07/26 12:40p 56.1 56.4 56.0 82 50.7 10.0 NNE 1.67 15.0 NNE 52.4 55.9 52.2 61.8 30.141 0.00 0.00 883 12.66 886 5.9 0.42 5.9 0.062 0.000 72.6 51 53.4 72.0 9.40 .0741 0.000 202 7 100.0 10
5/07/26 12:50p 56.4 56.4 55.9 83 51.3 10.0 NNE 1.67 15.0 NNE 52.8 56.2 52.6 62.2 30.139 0.00 0.00 886 12.70 889 6.0 0.43 6.0 0.060 0.000 72.7 52 54.1 72.3 9.60 .0740 0.000 202 7 100.0 10
5/07/26 1:00p 56.4 56.5 56.4 82 51.0 8.0 N 1.33 14.0 N 54.2 56.2 54.0 64.3 30.136 0.00 0.00 889 12.74 891 6.0 0.43 6.1 0.060 0.000 72.8 51 53.6 72.3 9.39 .0740 0.018 202 7 100.0 10
5/07/26 1:10p 56.8 56.8 56.4 83 51.7 7.0 N 1.17 12.0 N 55.4 56.6 55.2 66.0 30.135 0.00 0.00 889 12.74 893 6.1 0.44 6.1 0.057 0.000 72.8 51 53.6 72.3 9.39 .0740 0.000 202 7 100.0 10
5/07/26 1:20p 56.5 56.9 56.5 83 51.4 8.0 N 1.33 13.0 NNW 54.3 56.3 54.1 64.3 30.134 0.00 0.00 888 12.73 891 6.1 0.44 6.1 0.059 0.000 72.9 51 53.7 72.5 9.39 .0740 0.000 202 7 100.0 10
5/07/26 1:30p 56.7 56.7 56.4 82 51.3 8.0 NNE 1.33 12.0 NNE 54.5 56.5 54.3 64.5 30.131 0.00 0.00 886 12.70 889 6.1 0.44 6.1 0.058 0.000 73.0 51 53.8 72.6 9.39 .0740 0.000 201 7 100.0 10
5/07/26 1:40p 56.7 56.9 56.5 82 51.3 9.0 N 1.50 13.0 NNW 53.8 56.5 53.6 63.5 30.130 0.00 0.00 882 12.64 886 6.1 0.44 6.1 0.058 0.000 73.0 51 53.8 72.6 9.39 .0740 0.000 201 7 100.0 10
5/07/26 1:50p 56.9 57.2 56.6 82 51.5 8.0 N 1.33 13.0 N 54.8 56.7 54.6 64.8 30.131 0.00 0.00 874 12.53 879 6.0 0.43 6.0 0.056 0.000 73.1 51 53.9 72.7 9.39 .0740 0.000 203 7 100.0 10
5/07/26 2:00p 56.8 57.1 56.7 82 51.4 9.0 N 1.50 12.0 NNW 53.9 56.6 53.7 63.6 30.134 0.00 0.00 866 12.41 872 5.9 0.42 6.0 0.057 0.000 73.1 51 53.9 72.7 9.39 .0740 0.018 203 7 100.0 10
5/07/26 2:10p 56.7 57.0 56.7 82 51.3 9.0 NNE 1.50 14.0 NNW 53.8 56.5 53.6 63.5 30.136 0.00 0.00 860 12.33 865 5.8 0.41 5.9 0.058 0.000 73.1 51 53.9 72.7 9.39 .0740 0.000 200 7 100.0 10
5/07/26 2:20p 56.9 57.2 56.7 82 51.5 9.0 NNE 1.50 15.0 N 54.0 56.7 53.8 63.7 30.136 0.00 0.00 850 12.18 856 5.7 0.41 5.8 0.056 0.000 73.1 51 53.9 72.7 9.39 .0740 0.000 201 7 100.0 10
5/07/26 2:30p 57.7 58.0 56.9 81 51.9 7.0 N 1.17 13.0 N 56.4 57.5 56.2 66.9 30.134 0.00 0.00 839 12.03 846 5.6 0.40 5.6 0.051 0.000 73.1 51 53.9 72.7 9.39 .0740 0.000 202 7 100.0 10
5/07/26 2:40p 57.3 57.7 57.2 82 51.9 8.0 N 1.33 13.0 N 55.3 57.1 55.1 65.3 30.136 0.00 0.00 826 11.84 831 5.4 0.39 5.5 0.053 0.000 73.2 51 54.0 72.8 9.39 .0740 0.000 202 7 100.0 10
5/07/26 2:50p 57.8 57.8 57.3 82 52.3 8.0 NNE 1.33 15.0 NNE 55.9 57.6 55.7 66.0 30.132 0.00 0.00 811 11.63 821 5.2 0.37 5.3 0.050 0.000 73.2 51 54.0 72.8 9.39 .0740 0.000 202 7 100.0 10
5/07/26 3:00p 57.1 57.8 57.0 81 51.3 9.0 N 1.50 14.0 NNE 54.2 56.8 53.9 63.8 30.132 0.00 0.00 796 11.41 803 5.1 0.36 5.1 0.055 0.000 73.2 50 53.4 72.7 9.25 .0740 0.018 203 7 100.0 10
5/07/26 3:10p 56.8 57.4 56.8 80 50.7 9.0 N 1.50 14.0 N 53.9 56.5 53.6 63.5 30.129 0.00 0.00 778 11.15 788 4.9 0.35 4.9 0.057 0.000 73.3 50 53.5 72.9 9.25 .0740 0.000 204 7 100.0 10
5/07/26 3:20p 57.4 57.6 56.9 80 51.3 8.0 N 1.33 13.0 N 55.4 57.1 55.1 65.3 30.129 0.00 0.00 759 10.88 766 4.6 0.33 4.7 0.053 0.000 73.3 50 53.5 72.9 9.25 .0740 0.000 203 7 100.0 10
5/07/26 3:30p 57.2 57.5 57.2 80 51.1 8.0 N 1.33 12.0 N 55.1 56.9 54.8 65.1 30.130 0.00 0.00 743 10.65 751 4.4 0.31 4.5 0.054 0.000 73.4 51 54.2 73.1 9.38 .0739 0.000 203 7 100.0 10
5/07/26 3:40p 57.4 57.4 57.2 80 51.3 9.0 N 1.50 14.0 NE 54.6 57.1 54.3 64.3 30.123 0.00 0.00 724 10.38 733 4.2 0.30 4.3 0.053 0.000 73.4 51 54.2 73.1 9.38 .0739 0.000 204 7 100.0 10
5/07/26 3:50p 57.2 57.4 57.1 79 50.7 9.0 N 1.50 13.0 N 54.3 56.9 54.0 64.0 30.118 0.00 0.00 704 10.09 715 3.9 0.28 4.0 0.054 0.000 73.5 51 54.3 73.2 9.38 .0739 0.000 203 7 100.0 10
5/07/26 4:00p 56.8 57.2 56.6 81 51.0 8.0 N 1.33 13.0 N 54.7 56.5 54.4 64.7 30.117 0.00 0.00 678 9.72 687 3.7 0.26 3.8 0.057 0.000 73.5 51 54.3 73.2 9.38 .0739 0.016 201 7 100.0 10
5/07/26 4:10p 57.2 57.2 56.7 81 51.4 8.0 N 1.33 13.0 N 55.1 57.0 54.9 65.2 30.114 0.00 0.00 653 9.36 661 3.4 0.24 3.5 0.054 0.000 73.6 51 54.4 73.3 9.38 .0738 0.000 202 7 100.0 10
5/07/26 4:20p 57.4 57.4 57.1 80 51.3 8.0 N 1.33 13.0 NNE 55.4 57.1 55.1 65.6 30.109 0.00 0.00 635 9.10 654 3.2 0.23 3.3 0.053 0.000 73.7 51 54.4 73.4 9.38 .0738 0.000 205 7 100.0 10
5/07/26 4:30p 57.2 57.7 57.2 80 51.1 8.0 N 1.33 14.0 NNE 55.1 56.9 54.8 64.3 30.108 0.00 0.00 550 7.88 613 2.8 0.20 3.0 0.054 0.000 73.7 51 54.4 73.4 9.38 .0738 0.000 202 7 100.0 10
5/07/26 4:40p 57.8 57.9 57.1 79 51.3 7.0 NNE 1.17 13.0 NNE 56.6 57.5 56.3 67.1 30.106 0.00 0.00 581 8.33 589 2.7 0.19 2.8 0.050 0.000 73.8 51 54.5 73.6 9.37 .0738 0.000 203 7 100.0 10
5/07/26 4:50p 57.2 57.8 57.1 79 50.7 9.0 N 1.50 14.0 NE 54.3 56.9 54.0 64.4 30.102 0.00 0.00 576 8.26 585 2.5 0.18 2.6 0.054 0.000 73.8 50 54.0 73.5 9.25 .0738 0.000 202 7 100.0 10
5/07/26 5:00p 57.4 57.6 57.2 79 50.9 7.0 N 1.17 14.0 N 56.1 57.1 55.8 66.8 30.100 0.00 0.00 543 7.78 557 2.2 0.16 2.3 0.053 0.000 73.8 50 54.0 73.5 9.25 .0738 0.013 205 7 100.0 10
5/07/26 5:10p 57.1 57.5 56.9 80 51.0 9.0 N 1.50 15.0 NE 54.2 56.8 53.9 64.0 30.101 0.00 0.00 513 7.35 527 2.0 0.14 2.1 0.055 0.000 73.9 51 54.6 73.7 9.37 .0738 0.000 203 7 100.0 10
5/07/26 5:20p 56.8 57.2 56.8 80 50.7 8.0 NNE 1.33 13.0 N 54.7 56.5 54.4 64.7 30.103 0.00 0.00 482 6.91 494 1.8 0.13 1.9 0.057 0.000 73.9 51 54.6 73.7 9.37 .0738 0.000 203 7 100.0 10
5/07/26 5:30p 57.4 57.5 56.9 80 51.3 8.0 NNE 1.33 14.0 NE 55.4 57.1 55.1 65.3 30.098 0.00 0.00 454 6.51 468 1.6 0.11 1.7 0.053 0.000 73.9 51 54.6 73.7 9.37 .0737 0.000 204 7 100.0 10
5/07/26 5:40p 56.9 57.3 56.9 79 50.5 9.0 N 1.50 14.0 N 54.0 56.6 53.7 63.3 30.091 0.00 0.00 425 6.09 436 1.4 0.10 1.5 0.056 0.000 74.0 51 54.7 73.8 9.37 .0737 0.000 202 7 100.0 10
5/07/26 5:50p 57.2 57.2 56.9 80 51.1 7.0 NNE 1.17 12.0 NNE 55.8 56.9 55.5 65.8 30.094 0.00 0.00 397 5.69 413 1.2 0.09 1.3 0.054 0.000 74.0 51 54.7 73.8 9.37 .0737 0.000 204 7 100.0 10
5/07/26 6:00p 56.4 57.2 56.4 81 50.6 8.0 N 1.33 12.0 N 54.2 56.1 53.9 63.3 30.093 0.00 0.00 365 5.23 383 1.1 0.08 1.1 0.060 0.000 74.0 51 54.7 73.8 9.37 .0737 0.010 202 7 100.0 10
5/07/26 6:10p 56.7 56.7 56.3 81 50.9 7.0 NNE 1.17 13.0 NE 55.2 56.4 54.9 64.2 30.091 0.00 0.00 332 4.76 341 0.9 0.06 1.0 0.058 0.000 74.0 51 54.7 73.8 9.37 .0737 0.000 202 7 100.0 10
5/07/26 6:20p 56.6 56.8 56.6 81 50.8 8.0 N 1.33 12.0 N 54.4 56.3 54.1 62.1 30.091 0.00 0.00 293 4.20 322 0.7 0.05 0.8 0.058 0.000 74.1 51 54.8 73.9 9.37 .0737 0.000 201 7 100.0 10
5/07/26 6:30p 56.7 56.7 56.4 82 51.3 7.0 NNE 1.17 11.0 N 55.2 56.5 55.0 63.1 30.089 0.00 0.00 275 3.94 295 0.6 0.04 0.7 0.058 0.000 74.2 51 54.9 74.1 9.37 .0737 0.000 201 7 100.0 10
5/07/26 6:40p 55.9 56.7 55.9 81 50.2 8.0 NNE 1.33 12.0 NNE 53.6 55.6 53.3 57.7 30.089 0.00 0.00 179 2.57 251 0.4 0.03 0.6 0.063 0.000 74.2 51 54.9 74.1 9.37 .0737 0.000 204 7 100.0 10
5/07/26 6:50p 55.1 55.9 55.0 82 49.7 7.0 NNE 1.17 13.0 NNE 53.3 54.9 53.1 55.0 30.088 0.00 0.00 89 1.28 111 0.0 0.00 0.0 0.069 0.000 74.2 51 54.9 74.1 9.37 .0737 0.000 201 7 100.0 10
5/07/26 7:00p 55.5 55.5 55.0 82 50.1 6.0 NNE 1.00 12.0 NNW 54.2 55.3 54.0 58.5 30.087 0.00 0.00 164 2.35 192 0.0 0.00 0.0 0.066 0.000 74.2 51 54.9 74.1 9.37 .0737 0.005 200 7 100.0 10
5/07/26 7:10p 55.7 55.7 55.6 82 50.3 6.0 N 1.00 12.0 N 54.4 55.5 54.2 54.8 30.084 0.00 0.00 173 2.48 190 0.0 0.00 0.0 0.065 0.000 74.3 50 54.5 74.1 9.25 .0737 0.000 201 7 100.0 10
5/07/26 7:20p 55.3 55.7 55.3 82 49.9 6.0 NNE 1.00 11.0 N 54.0 55.1 53.8 53.3 30.085 0.00 0.00 122 1.75 146 0.0 0.00 0.0 0.067 0.000 74.2 50 54.4 74.0 9.25 .0737 0.000 202 7 100.0 10
5/07/26 7:30p 54.7 55.3 54.7 82 49.3 6.0 NNE 1.00 12.0 NNE 53.2 54.5 53.0 51.3 30.086 0.00 0.00 68 0.97 84 0.0 0.00 0.0 0.072 0.000 74.2 50 54.4 74.0 9.25 .0737 0.000 200 7 100.0 10
5/07/26 7:40p 54.5 54.8 54.5 82 49.1 5.0 NNE 0.83 9.0 N 53.5 54.3 53.3 51.2 30.086 0.00 0.00 46 0.66 56 0.0 0.00 0.0 0.073 0.000 74.2 50 54.4 74.0 9.25 .0737 0.000 202 7 100.0 10
5/07/26 7:50p 54.1 54.5 54.1 82 48.7 5.0 NNE 0.83 10.0 NNE 53.0 53.9 52.8 50.2 30.082 0.00 0.00 26 0.37 28 0.0 0.00 0.0 0.076 0.000 74.1 50 54.3 73.8 9.25 .0737 0.000 203 7 100.0 10
5/07/26 8:00p 53.9 54.1 53.9 83 48.9 5.0 NNE 0.83 9.0 ENE 52.8 53.7 52.6 49.9 30.083 0.00 0.00 23 0.33 23 0.0 0.00 0.0 0.077 0.000 74.0 49 53.6 73.6 9.05 .0737 0.002 200 7 100.0 10
5/07/26 8:10p 53.8 53.9 53.7 83 48.8 4.0 ENE 0.67 8.0 NNE 53.3 53.6 53.1 50.3 30.088 0.00 0.00 19 0.27 21 0.0 0.00 0.0 0.078 0.000 73.9 49 53.5 73.5 9.05 .0738 0.000 204 7 100.0 10
5/07/26 8:20p 53.5 53.7 53.5 83 48.5 2.0 NE 0.33 4.0 ENE 53.5 53.3 53.3 50.4 30.092 0.00 0.00 11 0.16 14 0.0 0.00 0.0 0.080 0.000 73.7 49 53.3 73.3 9.05 .0738 0.000 204 7 100.0 10
5/07/26 8:30p 53.1 53.5 53.1 83 48.1 2.0 NE 0.33 4.0 NE 53.1 52.9 52.9 49.8 30.095 0.00 0.00 2 0.03 5 0.0 0.00 0.0 0.083 0.000 73.6 49 53.3 73.2 9.05 .0738 0.000 203 7 100.0 10
5/07/26 8:40p 52.9 53.2 52.9 83 47.9 2.0 ENE 0.33 4.0 NE 52.9 52.7 52.7 49.5 30.097 0.00 0.00 0 0.00 0 0.0 0.00 0.0 0.084 0.000 73.5 49 53.2 73.0 9.05 .0739 0.000 203 7 100.0 10
5/07/26 8:50p 52.8 52.9 52.7 83 47.8 1.0 ENE 0.17 4.0 ENE 52.8 52.6 52.6 49.4 30.097 0.00 0.00 0 0.00 0 0.0 0.00 0.0 0.085 0.000 73.4 49 53.1 72.9 9.05 .0739 0.000 202 7 100.0 10
5/07/26 9:00p 52.5 52.8 52.5 83 47.5 2.0 NE 0.33 4.0 NE 52.5 52.4 52.4 49.2 30.094 0.00 0.00 0 0.00 0 0.0 0.00 0.0 0.087 0.000 73.3 49 53.0 72.8 9.05 .0739 0.000 202 7 100.0 10
5/07/26 9:10p 52.5 52.6 52.5 83 47.5 2.0 NE 0.33 5.0 NE 52.5 52.4 52.4 49.2 30.097 0.00 0.00 0 0.00 0 0.0 0.00 0.0 0.087 0.000 73.3 49 53.0 72.8 9.05 .0739 0.000 202 7 100.0 10
5/07/26 9:20p 52.3 52.5 52.3 83 47.3 2.0 ENE 0.33 6.0 NE 52.3 52.2 52.2 49.0 30.099 0.00 0.00 0 0.00 0 0.0 0.00 0.0 0.088 0.000 73.2 49 52.9 72.7 9.05 .0739 0.000 202 7 100.0 10
5/07/26 9:30p 52.1 52.3 52.1 83 47.1 1.0 ENE 0.17 4.0 ENE 52.1 52.0 52.0 48.8 30.101 0.00 0.00 0 0.00 0 0.0 0.00 0.0 0.090 0.000 73.1 49 52.8 72.5 9.05 .0739 0.000 204 7 100.0 10
5/07/26 9:40p 51.8 52.1 51.8 83 46.8 0.0 ENE 0.00 1.0 ENE 51.8 51.7 51.7 48.4 30.102 0.00 0.00 0 0.00 0 0.0 0.00 0.0 0.092 0.000 73.1 50 53.4 72.6 9.25 .0739 0.000 203 7 100.0 10
5/07/26 9:50p 51.6 51.9 51.6 83 46.6 0.0 ENE 0.00 1.0 ENE 51.6 51.5 51.5 48.2 30.103 0.00 0.00 0 0.00 0 0.0 0.00 0.0 0.093 0.000 73.0 50 53.3 72.5 9.25 .0739 0.000 203 7 100.0 10
5/07/26 10:00p 51.3 51.6 51.3 83 46.3 1.0 ENE 0.17 2.0 ENE 51.3 51.2 51.2 47.9 30.098 0.00 0.00 0 0.00 0 0.0 0.00 0.0 0.095 0.000 73.0 50 53.3 72.5 9.25 .0739 0.001 204 7 100.0 10
5/07/26 10:10p 51.1 51.3 51.1 83 46.1 0.0 ENE 0.00 2.0 ENE 51.1 51.1 51.1 47.8 30.098 0.00 0.00 0 0.00 0 0.0 0.00 0.0 0.097 0.000 72.9 50 53.2 72.4 9.25 .0739 0.000 205 7 100.0 10
5/07/26 10:20p 51.0 51.1 51.0 84 46.3 0.0 ENE 0.00 1.0 ENE 51.0 51.0 51.0 47.7 30.099 0.00 0.00 0 0.00 0 0.0 0.00 0.0 0.097 0.000 72.9 50 53.2 72.4 9.25 .0739 0.000 203 7 100.0 10
5/07/26 10:30p 50.8 51.0 50.8 84 46.1 0.0 ENE 0.00 1.0 ENE 50.8 50.8 50.8 47.5 30.101 0.00 0.00 0 0.00 0 0.0 0.00 0.0 0.099 0.000 72.9 50 53.2 72.4 9.25 .0740 0.000 202 7 100.0 10
5/07/26 10:40p 50.6 50.8 50.6 84 45.9 0.0 --- 0.00 0.0 --- 50.6 50.6 50.6 47.3 30.100 0.00 0.00 0 0.00 0 0.0 0.00 0.0 0.100 0.000 72.8 50 53.1 72.2 9.25 .0740 0.000 202 7 100.0 10
5/07/26 10:50p 50.5 50.7 50.5 84 45.8 0.0 ENE 0.00 1.0 ENE 50.5 50.5 50.5 47.2 30.101 0.00 0.00 0 0.00 0 0.0 0.00 0.0 0.101 0.000 72.7 50 53.0 72.1 9.25 .0740 0.000 205 7 100.0 10
5/07/26 11:00p 50.9 50.9 50.5 85 46.6 0.0 ENE 0.00 2.0 ENE 50.9 50.9 50.9 47.6 30.103 0.00 0.00 0 0.00 0 0.0 0.00 0.0 0.098 0.000 72.7 50 53.0 72.1 9.25 .0740 0.000 203 7 100.0 10
5/07/26 11:10p 50.5 50.9 50.5 84 45.8 0.0 --- 0.00 0.0 --- 50.5 50.5 50.5 47.2 30.102 0.00 0.00 0 0.00 0 0.0 0.00 0.0 0.101 0.000 72.7 50 53.0 72.1 9.25 .0740 0.000 201 7 100.0 10
5/07/26 11:20p 50.4 50.6 50.4 85 46.1 0.0 ENE 0.00 1.0 ENE 50.4 50.5 50.5 47.2 30.107 0.00 0.00 0 0.00 0 0.0 0.00 0.0 0.101 0.000 72.7 50 53.0 72.1 9.25 .0740 0.000 203 7 100.0 10
5/07/26 11:30p 50.0 50.4 50.0 84 45.4 0.0 ENE 0.00 1.0 ENE 50.0 50.1 50.1 46.8 30.108 0.00 0.00 0 0.00 0 0.0 0.00 0.0 0.104 0.000 72.6 50 52.9 71.9 9.25 .0740 0.000 203 7 100.0 10
5/07/26 11:40p 49.5 50.0 49.5 84 44.9 0.0 ENE 0.00 1.0 ENE 49.5 49.6 49.6 46.3 30.108 0.00 0.00 0 0.00 0 0.0 0.00 0.0 0.108 0.000 72.5 50 52.8 71.8 9.25 .0740 0.000 202 7 100.0 10
5/07/26 11:50p 49.2 49.5 49.2 85 44.9 0.0 ENE 0.00 2.0 ENE 49.2 49.3 49.3 46.0 30.108 0.00 0.00 0 0.00 0 0.0 0.00 0.0 0.110 0.000 72.5 50 52.8 71.8 9.25 .0740 0.000 200 7 100.0 10
5/08/26 12:00a 49.1 49.2 49.1 85 44.8 0.0 ENE 0.00 2.0 ENE 49.1 49.2 49.2 45.9 30.108 0.00 0.00 0 0.00 0 0.0 0.00 0.0 0.110 0.000 72.5 50 52.8 71.8 9.25 .0740 0.000 205 7 100.0 10
5/08/26 12:10a 49.3 49.3 49.1 86 45.3 0.0 ENE 0.00 2.0 ENE 49.3 49.4 49.4 46.1 30.112 0.00 0.00 0 0.00 0 0.0 0.00 0.0 0.109 0.000 72.4 50 52.7 71.7 9.25 .0741 0.000 202 7 100.0 10
5/08/26 12:20a 49.5 49.5 49.2 86 45.5 0.0 ENE 0.00 2.0 ENE 49.5 49.6 49.6 46.3 30.115 0.00 0.00 0 0.00 0 0.0 0.00 0.0 0.108 0.000 72.4 50 52.7 71.7 9.25 .0741 0.000 202 7 100.0 10
5/08/26 12:30a 49.7 49.7 49.5 86 45.7 0.0 ENE 0.00 2.0 ENE 49.7 49.8 49.8 46.5 30.115 0.00 0.00 0 0.00 0 0.0 0.00 0.0 0.106 0.000 72.3 50 52.6 71.5 9.25 .0741 0.000 202 7 100.0 10
5/08/26 12:40a 49.8 49.8 49.7 87 46.1 0.0 ENE 0.00 1.0 ENE 49.8 50.0 50.0 46.7 30.115 0.00 0.00 0 0.00 0 0.0 0.00 0.0 0.106 0.000 72.3 50 52.6 71.5 9.25 .0741 0.000 203 7 100.0 10
5/08/26 12:50a 49.9 49.9 49.8 87 46.2 1.0 ENE 0.17 3.0 ENE 49.9 50.1 50.1 46.8 30.111 0.00 0.00 0 0.00 0 0.0 0.00 0.0 0.105 0.000 72.2 50 52.5 71.4 9.25 .0741 0.000 202 7 100.0 10